sensor_id;sensor_type;location;lat;lon;timestamp;temperature;humidity
21282;DHT22;10800;53.096;18.328;2023-04-03T00:01:59;1.40;99.90
21282;DHT22;10800;53.096;18.328;2023-04-03T00:07:06;1.40;99.90
21282;DHT22;10800;53.096;18.328;2023-04-03T00:32:49;1.40;99.90
21282;DHT22;10800;53.096;18.328;2023-04-03T00:37:55;1.30;99.90
21282;DHT22;10800;53.096;18.328;2023-04-03T00:43:01;1.30;99.90
21282;DHT22;10800;53.096;18.328;2023-04-03T00:48:10;1.20;99.90
21282;DHT22;10800;53.096;18.328;2023-04-03T00:53:18;1.20;99.90
21282;DHT22;10800;53.096;18.328;2023-04-03T00:58:27;1.10;99.90
21282;DHT22;10800;53.096;18.328;2023-04-03T01:03:32;1.20;99.90
21282;DHT22;10800;53.096;18.328;2023-04-03T01:08:37;1.20;99.90
21282;DHT22;10800;53.096;18.328;2023-04-03T01:13:43;1.10;99.90
21282;DHT22;10800;53.096;18.328;2023-04-03T01:18:49;1.10;99.90
21282;DHT22;10800;53.096;18.328;2023-04-03T01:23:58;1.00;99.90
21282;DHT22;10800;53.096;18.328;2023-04-03T01:29:03;1.00;99.90
21282;DHT22;10800;53.096;18.328;2023-04-03T01:34:10;1.00;99.90
21282;DHT22;10800;53.096;18.328;2023-04-03T01:39:15;1.00;99.90
21282;DHT22;10800;53.096;18.328;2023-04-03T01:44:20;1.00;99.90
21282;DHT22;10800;53.096;18.328;2023-04-03T01:49:26;1.00;99.90
21282;DHT22;10800;53.096;18.328;2023-04-03T01:54:31;0.90;99.90
21282;DHT22;10800;53.096;18.328;2023-04-03T01:59:37;0.80;99.90
21282;DHT22;10800;53.096;18.328;2023-04-03T02:04:42;0.80;99.90
21282;DHT22;10800;53.096;18.328;2023-04-03T02:09:47;0.80;99.90
21282;DHT22;10800;53.096;18.328;2023-04-03T02:14:52;0.80;99.90
21282;DHT22;10800;53.096;18.328;2023-04-03T02:19:58;0.90;99.90
21282;DHT22;10800;53.096;18.328;2023-04-03T02:25:04;0.80;99.90
21282;DHT22;10800;53.096;18.328;2023-04-03T02:30:09;0.80;99.90
21282;DHT22;10800;53.096;18.328;2023-04-03T02:35:15;0.70;99.90
21282;DHT22;10800;53.096;18.328;2023-04-03T02:40:21;0.60;99.90
21282;DHT22;10800;53.096;18.328;2023-04-03T02:45:26;0.60;99.90
21282;DHT22;10800;53.096;18.328;2023-04-03T02:50:31;0.50;99.90
21282;DHT22;10800;53.096;18.328;2023-04-03T02:55:36;0.60;99.90
21282;DHT22;10800;53.096;18.328;2023-04-03T03:00:43;0.50;99.90
21282;DHT22;10800;53.096;18.328;2023-04-03T03:05:48;0.50;99.90
21282;DHT22;10800;53.096;18.328;2023-04-03T03:10:54;0.50;99.90
21282;DHT22;10800;53.096;18.328;2023-04-03T03:15:59;0.50;99.90
21282;DHT22;10800;53.096;18.328;2023-04-03T03:21:05;0.50;99.90
21282;DHT22;10800;53.096;18.328;2023-04-03T03:26:11;0.40;99.90
21282;DHT22;10800;53.096;18.328;2023-04-03T03:31:16;0.40;99.90
21282;DHT22;10800;53.096;18.328;2023-04-03T03:36:22;0.40;99.90
21282;DHT22;10800;53.096;18.328;2023-04-03T03:41:27;0.30;99.90
21282;DHT22;10800;53.096;18.328;2023-04-03T03:46:32;0.40;99.90
21282;DHT22;10800;53.096;18.328;2023-04-03T03:51:39;0.40;99.90
21282;DHT22;10800;53.096;18.328;2023-04-03T03:56:44;0.40;99.90
21282;DHT22;10800;53.096;18.328;2023-04-03T04:01:49;0.30;99.90
21282;DHT22;10800;53.096;18.328;2023-04-03T04:06:55;0.20;99.90
21282;DHT22;10800;53.096;18.328;2023-04-03T04:12:00;0.20;99.90
21282;DHT22;10800;53.096;18.328;2023-04-03T04:17:06;0.30;99.90
21282;DHT22;10800;53.096;18.328;2023-04-03T04:22:11;0.20;99.90
21282;DHT22;10800;53.096;18.328;2023-04-03T04:27:17;0.20;99.90
21282;DHT22;10800;53.096;18.328;2023-04-03T04:32:22;0.20;99.90
21282;DHT22;10800;53.096;18.328;2023-04-03T04:37:28;0.20;99.90
21282;DHT22;10800;53.096;18.328;2023-04-03T04:42:33;0.20;99.90
21282;DHT22;10800;53.096;18.328;2023-04-03T04:47:38;0.20;99.90
21282;DHT22;10800;53.096;18.328;2023-04-03T04:52:44;0.20;99.90
21282;DHT22;10800;53.096;18.328;2023-04-03T04:57:49;0.20;99.90
21282;DHT22;10800;53.096;18.328;2023-04-03T05:02:54;0.10;99.90
21282;DHT22;10800;53.096;18.328;2023-04-03T05:07:59;0.20;99.90
21282;DHT22;10800;53.096;18.328;2023-04-03T05:13:05;0.30;99.90
21282;DHT22;10800;53.096;18.328;2023-04-03T05:18:10;0.30;99.90
21282;DHT22;10800;53.096;18.328;2023-04-03T05:23:15;0.40;99.90
21282;DHT22;10800;53.096;18.328;2023-04-03T05:28:20;0.50;99.90
21282;DHT22;10800;53.096;18.328;2023-04-03T05:33:26;0.60;99.90
21282;DHT22;10800;53.096;18.328;2023-04-03T05:38:32;0.80;99.90
21282;DHT22;10800;53.096;18.328;2023-04-03T05:43:38;1.10;99.90
21282;DHT22;10800;53.096;18.328;2023-04-03T05:48:44;1.20;99.90
21282;DHT22;10800;53.096;18.328;2023-04-03T05:53:56;1.20;99.90
21282;DHT22;10800;53.096;18.328;2023-04-03T05:58:57;1.40;99.90
21282;DHT22;10800;53.096;18.328;2023-04-03T06:04:04;1.80;99.90
21282;DHT22;10800;53.096;18.328;2023-04-03T06:09:09;2.20;99.90
21282;DHT22;10800;53.096;18.328;2023-04-03T06:14:14;2.70;99.90
21282;DHT22;10800;53.096;18.328;2023-04-03T06:19:20;3.00;99.90
21282;DHT22;10800;53.096;18.328;2023-04-03T06:24:25;3.50;99.90
21282;DHT22;10800;53.096;18.328;2023-04-03T06:29:31;3.80;99.90
21282;DHT22;10800;53.096;18.328;2023-04-03T06:34:36;4.20;99.90
21282;DHT22;10800;53.096;18.328;2023-04-03T06:39:42;4.70;99.90
21282;DHT22;10800;53.096;18.328;2023-04-03T06:44:47;4.70;99.90
21282;DHT22;10800;53.096;18.328;2023-04-03T06:49:53;4.90;98.70
21282;DHT22;10800;53.096;18.328;2023-04-03T06:54:58;5.30;96.80
21282;DHT22;10800;53.096;18.328;2023-04-03T07:00:06;5.30;94.70
21282;DHT22;10800;53.096;18.328;2023-04-03T07:05:14;5.70;92.70
21282;DHT22;10800;53.096;18.328;2023-04-03T07:10:19;5.40;90.80
21282;DHT22;10800;53.096;18.328;2023-04-03T07:15:24;5.80;88.90
21282;DHT22;10800;53.096;18.328;2023-04-03T07:20:30;6.10;89.40
21282;DHT22;10800;53.096;18.328;2023-04-03T07:25:35;6.10;81.20
21282;DHT22;10800;53.096;18.328;2023-04-03T07:30:47;5.80;80.50
21282;DHT22;10800;53.096;18.328;2023-04-03T07:35:53;5.80;81.50
21282;DHT22;10800;53.096;18.328;2023-04-03T07:40:59;6.20;78.70
21282;DHT22;10800;53.096;18.328;2023-04-03T07:46:05;7.00;76.50
21282;DHT22;10800;53.096;18.328;2023-04-03T07:51:12;6.90;73.30
21282;DHT22;10800;53.096;18.328;2023-04-03T07:56:18;6.90;66.90
21282;DHT22;10800;53.096;18.328;2023-04-03T08:01:24;7.50;69.00
21282;DHT22;10800;53.096;18.328;2023-04-03T08:06:31;7.10;65.80
21282;DHT22;10800;53.096;18.328;2023-04-03T08:11:40;6.60;65.70
21282;DHT22;10800;53.096;18.328;2023-04-03T08:16:46;7.30;62.40
21282;DHT22;10800;53.096;18.328;2023-04-03T08:21:53;7.90;63.50
21282;DHT22;10800;53.096;18.328;2023-04-03T08:26:59;8.00;59.50
21282;DHT22;10800;53.096;18.328;2023-04-03T08:32:05;8.60;61.60
21282;DHT22;10800;53.096;18.328;2023-04-03T08:37:11;8.50;56.90
21282;DHT22;10800;53.096;18.328;2023-04-03T08:42:37;8.60;58.70
21282;DHT22;10800;53.096;18.328;2023-04-03T08:48:05;8.60;58.90
21282;DHT22;10800;53.096;18.328;2023-04-03T08:53:15;8.20;58.20
21282;DHT22;10800;53.096;18.328;2023-04-03T08:58:29;7.60;58.70
21282;DHT22;10800;53.096;18.328;2023-04-03T09:03:39;7.00;61.00
21282;DHT22;10800;53.096;18.328;2023-04-03T09:09:38;7.60;57.10
21282;DHT22;10800;53.096;18.328;2023-04-03T09:14:19;8.10;57.10
21282;DHT22;10800;53.096;18.328;2023-04-03T09:19:38;8.20;56.90
21282;DHT22;10800;53.096;18.328;2023-04-03T09:24:45;9.10;56.50
21282;DHT22;10800;53.096;18.328;2023-04-03T09:29:56;9.40;55.80
21282;DHT22;10800;53.096;18.328;2023-04-03T09:35:27;9.10;56.70
21282;DHT22;10800;53.096;18.328;2023-04-03T09:45:35;7.50;56.80
21282;DHT22;10800;53.096;18.328;2023-04-03T09:56:01;9.10;57.20
21282;DHT22;10800;53.096;18.328;2023-04-03T10:01:20;9.50;54.60
21282;DHT22;10800;53.096;18.328;2023-04-03T10:06:25;9.70;51.10
21282;DHT22;10800;53.096;18.328;2023-04-03T10:11:27;9.40;52.90
21282;DHT22;10800;53.096;18.328;2023-04-03T10:16:35;10.20;53.00
21282;DHT22;10800;53.096;18.328;2023-04-03T10:33:03;8.60;54.10
21282;DHT22;10800;53.096;18.328;2023-04-03T10:43:47;9.40;53.20
21282;DHT22;10800;53.096;18.328;2023-04-03T10:49:22;8.60;55.90
21282;DHT22;10800;53.096;18.328;2023-04-03T10:59:48;8.90;54.70
21282;DHT22;10800;53.096;18.328;2023-04-03T11:04:59;9.20;53.90
21282;DHT22;10800;53.096;18.328;2023-04-03T11:10:12;8.30;54.50
21282;DHT22;10800;53.096;18.328;2023-04-03T11:15:21;9.30;55.00
21282;DHT22;10800;53.096;18.328;2023-04-03T11:20:30;8.40;54.80
21282;DHT22;10800;53.096;18.328;2023-04-03T11:25:39;9.50;55.50
21282;DHT22;10800;53.096;18.328;2023-04-03T11:36:24;8.50;57.40
21282;DHT22;10800;53.096;18.328;2023-04-03T11:41:30;8.90;54.80
21282;DHT22;10800;53.096;18.328;2023-04-03T11:46:59;9.60;55.50
21282;DHT22;10800;53.096;18.328;2023-04-03T11:52:13;9.10;53.50
21282;DHT22;10800;53.096;18.328;2023-04-03T11:57:44;8.50;53.10
21282;DHT22;10800;53.096;18.328;2023-04-03T12:02:46;9.00;54.70
21282;DHT22;10800;53.096;18.328;2023-04-03T12:08:42;9.60;52.30
21282;DHT22;10800;53.096;18.328;2023-04-03T12:24:30;7.90;56.40
21282;DHT22;10800;53.096;18.328;2023-04-03T12:29:50;8.00;57.30
21282;DHT22;10800;53.096;18.328;2023-04-03T12:51:25;8.30;55.10
21282;DHT22;10800;53.096;18.328;2023-04-03T12:56:29;7.30;56.30
21282;DHT22;10800;53.096;18.328;2023-04-03T13:01:36;6.90;58.60
21282;DHT22;10800;53.096;18.328;2023-04-03T13:06:44;7.80;61.60
21282;DHT22;10800;53.096;18.328;2023-04-03T13:11:51;7.70;56.40
21282;DHT22;10800;53.096;18.328;2023-04-03T13:17:15;7.80;54.60
21282;DHT22;10800;53.096;18.328;2023-04-03T13:27:36;8.00;57.00
21282;DHT22;10800;53.096;18.328;2023-04-03T13:32:43;7.40;57.20
21282;DHT22;10800;53.096;18.328;2023-04-03T13:38:05;7.30;59.40
21282;DHT22;10800;53.096;18.328;2023-04-03T13:43:15;6.80;60.00
21282;DHT22;10800;53.096;18.328;2023-04-03T13:48:19;6.50;59.30
21282;DHT22;10800;53.096;18.328;2023-04-03T13:53:30;6.50;60.70
21282;DHT22;10800;53.096;18.328;2023-04-03T13:58:36;7.10;62.60
21282;DHT22;10800;53.096;18.328;2023-04-03T14:03:52;7.10;61.20
21282;DHT22;10800;53.096;18.328;2023-04-03T14:08:54;6.50;65.10
21282;DHT22;10800;53.096;18.328;2023-04-03T14:14:18;6.40;65.90
21282;DHT22;10800;53.096;18.328;2023-04-03T14:19:27;6.10;64.60
21282;DHT22;10800;53.096;18.328;2023-04-03T14:24:33;6.50;64.30
21282;DHT22;10800;53.096;18.328;2023-04-03T14:29:38;7.10;64.00
21282;DHT22;10800;53.096;18.328;2023-04-03T14:34:45;6.70;59.20
21282;DHT22;10800;53.096;18.328;2023-04-03T14:39:51;6.30;62.20
21282;DHT22;10800;53.096;18.328;2023-04-03T14:44:59;6.30;60.90
21282;DHT22;10800;53.096;18.328;2023-04-03T14:50:06;6.10;61.40
21282;DHT22;10800;53.096;18.328;2023-04-03T14:55:14;6.20;63.20
21282;DHT22;10800;53.096;18.328;2023-04-03T15:00:21;6.50;61.80
21282;DHT22;10800;53.096;18.328;2023-04-03T15:05:28;6.10;60.60
21282;DHT22;10800;53.096;18.328;2023-04-03T15:10:33;6.20;60.40
21282;DHT22;10800;53.096;18.328;2023-04-03T15:15:39;6.20;59.40
21282;DHT22;10800;53.096;18.328;2023-04-03T15:20:44;6.00;58.40
21282;DHT22;10800;53.096;18.328;2023-04-03T15:25:51;6.10;60.20
21282;DHT22;10800;53.096;18.328;2023-04-03T15:30:57;6.30;61.00
21282;DHT22;10800;53.096;18.328;2023-04-03T15:36:03;6.00;61.40
21282;DHT22;10800;53.096;18.328;2023-04-03T15:41:10;5.50;62.50
21282;DHT22;10800;53.096;18.328;2023-04-03T15:46:16;5.20;63.00
21282;DHT22;10800;53.096;18.328;2023-04-03T15:51:21;5.00;61.70
21282;DHT22;10800;53.096;18.328;2023-04-03T15:56:27;5.10;62.40
21282;DHT22;10800;53.096;18.328;2023-04-03T16:01:32;5.10;60.40
21282;DHT22;10800;53.096;18.328;2023-04-03T16:06:38;5.10;59.70
21282;DHT22;10800;53.096;18.328;2023-04-03T16:11:44;5.10;60.40
21282;DHT22;10800;53.096;18.328;2023-04-03T16:16:49;5.20;61.10
21282;DHT22;10800;53.096;18.328;2023-04-03T16:21:55;5.30;61.90
21282;DHT22;10800;53.096;18.328;2023-04-03T16:27:02;5.30;64.50
21282;DHT22;10800;53.096;18.328;2023-04-03T16:32:08;4.90;63.30
21282;DHT22;10800;53.096;18.328;2023-04-03T16:37:13;4.70;66.10
21282;DHT22;10800;53.096;18.328;2023-04-03T16:42:18;4.50;68.50
21282;DHT22;10800;53.096;18.328;2023-04-03T16:47:24;4.50;69.50
21282;DHT22;10800;53.096;18.328;2023-04-03T16:52:31;4.30;71.50
21282;DHT22;10800;53.096;18.328;2023-04-03T16:57:37;4.20;72.30
21282;DHT22;10800;53.096;18.328;2023-04-03T17:02:42;4.10;74.10
21282;DHT22;10800;53.096;18.328;2023-04-03T17:07:47;4.20;73.80
21282;DHT22;10800;53.096;18.328;2023-04-03T17:12:53;4.20;75.20
21282;DHT22;10800;53.096;18.328;2023-04-03T17:17:59;4.20;73.00
21282;DHT22;10800;53.096;18.328;2023-04-03T17:23:05;4.00;74.20
21282;DHT22;10800;53.096;18.328;2023-04-03T17:28:10;3.90;74.40
21282;DHT22;10800;53.096;18.328;2023-04-03T17:33:16;3.80;75.40
21282;DHT22;10800;53.096;18.328;2023-04-03T17:38:21;3.60;75.90
21282;DHT22;10800;53.096;18.328;2023-04-03T17:43:27;3.50;77.20
21282;DHT22;10800;53.096;18.328;2023-04-03T17:48:34;3.30;78.30
21282;DHT22;10800;53.096;18.328;2023-04-03T17:53:41;3.30;78.20
21282;DHT22;10800;53.096;18.328;2023-04-03T17:58:48;3.20;78.00
21282;DHT22;10800;53.096;18.328;2023-04-03T18:03:56;3.20;78.70
21282;DHT22;10800;53.096;18.328;2023-04-03T18:09:07;3.10;78.20
21282;DHT22;10800;53.096;18.328;2023-04-03T18:14:15;3.10;78.60
21282;DHT22;10800;53.096;18.328;2023-04-03T18:19:22;3.00;78.10
21282;DHT22;10800;53.096;18.328;2023-04-03T18:24:28;2.90;77.40
21282;DHT22;10800;53.096;18.328;2023-04-03T18:29:35;2.90;77.50
21282;DHT22;10800;53.096;18.328;2023-04-03T18:34:41;2.90;77.00
21282;DHT22;10800;53.096;18.328;2023-04-03T18:39:46;2.90;77.60
21282;DHT22;10800;53.096;18.328;2023-04-03T18:44:54;2.90;77.50
21282;DHT22;10800;53.096;18.328;2023-04-03T18:50:00;2.90;77.90
21282;DHT22;10800;53.096;18.328;2023-04-03T18:55:06;3.00;77.00
21282;DHT22;10800;53.096;18.328;2023-04-03T19:00:13;3.00;78.50
21282;DHT22;10800;53.096;18.328;2023-04-03T19:05:18;3.00;77.30
21282;DHT22;10800;53.096;18.328;2023-04-03T19:10:25;3.00;77.00
21282;DHT22;10800;53.096;18.328;2023-04-03T19:15:31;3.00;77.10
21282;DHT22;10800;53.096;18.328;2023-04-03T19:20:36;3.00;77.40
21282;DHT22;10800;53.096;18.328;2023-04-03T19:25:44;3.00;77.50
21282;DHT22;10800;53.096;18.328;2023-04-03T19:30:50;2.90;77.90
21282;DHT22;10800;53.096;18.328;2023-04-03T19:35:56;2.80;78.50
21282;DHT22;10800;53.096;18.328;2023-04-03T19:41:10;2.90;79.20
21282;DHT22;10800;53.096;18.328;2023-04-03T19:46:10;2.80;79.20
21282;DHT22;10800;53.096;18.328;2023-04-03T19:51:16;2.70;79.50
21282;DHT22;10800;53.096;18.328;2023-04-03T19:56:23;2.70;81.10
21282;DHT22;10800;53.096;18.328;2023-04-03T20:01:29;2.60;81.00
21282;DHT22;10800;53.096;18.328;2023-04-03T20:06:36;2.70;80.00
21282;DHT22;10800;53.096;18.328;2023-04-03T20:11:41;2.70;80.20
21282;DHT22;10800;53.096;18.328;2023-04-03T20:16:48;2.70;80.20
21282;DHT22;10800;53.096;18.328;2023-04-03T20:21:53;2.70;79.30
21282;DHT22;10800;53.096;18.328;2023-04-03T20:26:59;2.70;80.20
21282;DHT22;10800;53.096;18.328;2023-04-03T20:32:05;2.70;80.30
21282;DHT22;10800;53.096;18.328;2023-04-03T20:37:10;2.70;79.10
21282;DHT22;10800;53.096;18.328;2023-04-03T20:42:17;2.70;78.30
21282;DHT22;10800;53.096;18.328;2023-04-03T20:47:23;2.70;78.10
21282;DHT22;10800;53.096;18.328;2023-04-03T20:52:28;2.60;77.70
21282;DHT22;10800;53.096;18.328;2023-04-03T20:57:34;2.70;77.50
21282;DHT22;10800;53.096;18.328;2023-04-03T21:02:40;2.60;77.20
21282;DHT22;10800;53.096;18.328;2023-04-03T21:24:19;2.30;79.40
21282;DHT22;10800;53.096;18.328;2023-04-03T21:29:25;2.20;80.60
21282;DHT22;10800;53.096;18.328;2023-04-03T21:34:31;2.10;81.40
21282;DHT22;10800;53.096;18.328;2023-04-03T21:39:36;1.90;82.50
21282;DHT22;10800;53.096;18.328;2023-04-03T21:44:41;1.90;83.20
21282;DHT22;10800;53.096;18.328;2023-04-03T21:49:46;1.80;83.40
21282;DHT22;10800;53.096;18.328;2023-04-03T21:54:51;1.70;84.10
21282;DHT22;10800;53.096;18.328;2023-04-03T21:59:57;1.60;85.20
21282;DHT22;10800;53.096;18.328;2023-04-03T22:05:02;1.60;85.70
21282;DHT22;10800;53.096;18.328;2023-04-03T22:10:08;1.60;85.90
21282;DHT22;10800;53.096;18.328;2023-04-03T22:15:13;1.50;85.90
21282;DHT22;10800;53.096;18.328;2023-04-03T22:20:18;1.30;86.50
21282;DHT22;10800;53.096;18.328;2023-04-03T22:25:23;1.30;86.80
21282;DHT22;10800;53.096;18.328;2023-04-03T22:30:29;1.20;87.20
21282;DHT22;10800;53.096;18.328;2023-04-03T22:35:35;1.10;88.10
21282;DHT22;10800;53.096;18.328;2023-04-03T22:40:41;1.00;88.30
21282;DHT22;10800;53.096;18.328;2023-04-03T22:45:48;1.00;88.40
21282;DHT22;10800;53.096;18.328;2023-04-03T22:50:54;0.90;88.80
21282;DHT22;10800;53.096;18.328;2023-04-03T22:56:01;0.90;89.20
21282;DHT22;10800;53.096;18.328;2023-04-03T23:01:12;0.80;90.00
21282;DHT22;10800;53.096;18.328;2023-04-03T23:06:19;0.70;90.70
21282;DHT22;10800;53.096;18.328;2023-04-03T23:11:24;0.60;90.80
21282;DHT22;10800;53.096;18.328;2023-04-03T23:16:30;0.60;91.20
21282;DHT22;10800;53.096;18.328;2023-04-03T23:21:36;0.60;91.50
21282;DHT22;10800;53.096;18.328;2023-04-03T23:26:41;0.60;91.70
21282;DHT22;10800;53.096;18.328;2023-04-03T23:31:46;0.50;91.80
21282;DHT22;10800;53.096;18.328;2023-04-03T23:36:51;0.60;92.30
21282;DHT22;10800;53.096;18.328;2023-04-03T23:41:56;0.60;92.50
21282;DHT22;10800;53.096;18.328;2023-04-03T23:47:01;0.60;92.80
21282;DHT22;10800;53.096;18.328;2023-04-03T23:52:07;0.60;92.90
21282;DHT22;10800;53.096;18.328;2023-04-03T23:57:12;0.60;93.30
